createdAt,value
2022-10-05T00:00:51.855Z,8.68
2022-10-05T00:01:53.790Z,8.66
2022-10-05T00:02:55.322Z,8.66
2022-10-05T00:03:57.103Z,8.64
2022-10-05T00:04:58.866Z,8.63
2022-10-05T00:06:00.530Z,8.61
2022-10-05T00:07:10.277Z,8.58
2022-10-05T00:08:04.001Z,8.58
2022-10-05T00:09:05.731Z,8.57
2022-10-05T00:10:07.691Z,8.57
2022-10-05T00:11:09.305Z,8.57
2022-10-05T00:12:10.962Z,8.58
2022-10-05T00:13:12.678Z,8.59
2022-10-05T00:14:14.411Z,8.6
2022-10-05T00:15:16.140Z,8.59
2022-10-05T00:16:17.995Z,8.59
2022-10-05T00:17:19.614Z,8.59
2022-10-05T00:18:21.344Z,8.59
2022-10-05T00:19:23.080Z,8.58
2022-10-05T00:20:24.808Z,8.57
2022-10-05T00:21:26.552Z,8.55
2022-10-05T00:22:28.304Z,8.53
2022-10-05T00:23:30.023Z,8.51
2022-10-05T00:24:31.753Z,8.48
2022-10-05T00:25:33.511Z,8.46
2022-10-05T00:26:35.219Z,8.42
2022-10-05T00:27:36.973Z,8.39
2022-10-05T00:28:38.683Z,8.36
2022-10-05T00:29:40.424Z,8.33
2022-10-05T00:30:42.164Z,8.29
2022-10-05T00:31:43.973Z,8.25
2022-10-05T00:32:45.631Z,8.22
2022-10-05T00:33:47.372Z,8.19
2022-10-05T00:34:49.148Z,8.14
2022-10-05T00:35:50.844Z,8.1
2022-10-05T00:36:52.578Z,8.07
2022-10-05T00:37:54.308Z,8.04
2022-10-05T00:38:56.045Z,8.02
2022-10-05T00:39:57.769Z,8.01
2022-10-05T00:40:59.511Z,8.01
2022-10-05T00:42:01.272Z,8.01
2022-10-05T00:43:02.982Z,8.02
2022-10-05T00:44:04.717Z,8.04
2022-10-05T00:45:06.451Z,8.04
2022-10-05T00:46:08.261Z,8.06
2022-10-05T00:47:09.933Z,8.09
2022-10-05T00:48:11.660Z,8.11
2022-10-05T00:49:13.390Z,8.13
2022-10-05T00:50:15.148Z,8.15
2022-10-05T00:51:16.865Z,8.17
2022-10-05T00:52:18.617Z,8.18
2022-10-05T00:53:20.335Z,8.19
2022-10-05T00:54:22.066Z,8.2
2022-10-05T00:55:23.798Z,8.22
2022-10-05T00:56:25.536Z,8.22
2022-10-05T00:57:27.272Z,8.23
2022-10-05T00:58:29.013Z,8.24
2022-10-05T00:59:30.741Z,8.25
2022-10-05T01:00:32.471Z,8.24
2022-10-05T01:01:34.338Z,8.24
2022-10-05T01:02:37.063Z,8.24
2022-10-05T01:03:37.680Z,8.23
2022-10-05T01:04:39.406Z,8.24
2022-10-05T01:05:41.154Z,8.24
2022-10-05T01:06:43.103Z,8.23
2022-10-05T01:07:44.618Z,8.23
2022-10-05T01:08:46.353Z,8.22
2022-10-05T01:09:48.084Z,8.21
2022-10-05T01:10:49.816Z,8.2
2022-10-05T01:11:51.569Z,8.19
2022-10-05T01:12:53.289Z,8.18
2022-10-05T01:13:55.020Z,8.16
2022-10-05T01:14:56.756Z,8.16
2022-10-05T01:15:58.483Z,8.15
2022-10-05T01:17:00.287Z,8.12
2022-10-05T01:18:01.948Z,8.11
2022-10-05T01:19:03.681Z,8.09
2022-10-05T01:20:05.432Z,8.08
2022-10-05T01:21:07.159Z,8.06
2022-10-05T01:22:08.907Z,8.05
2022-10-05T01:23:10.634Z,8.04
2022-10-05T01:24:12.367Z,8.02
2022-10-05T01:25:14.097Z,8.01
2022-10-05T01:26:15.830Z,8
2022-10-05T01:27:17.568Z,7.98
2022-10-05T01:28:19.341Z,7.97
2022-10-05T01:29:21.031Z,7.94
2022-10-05T01:30:22.769Z,7.91
2022-10-05T01:31:24.603Z,7.89
2022-10-05T01:32:26.268Z,7.86
2022-10-05T01:33:27.975Z,7.84
2022-10-05T01:34:29.708Z,7.8
2022-10-05T01:35:31.451Z,7.78
2022-10-05T01:36:33.182Z,7.75
2022-10-05T01:37:34.924Z,7.73
2022-10-05T01:38:36.649Z,7.7
2022-10-05T01:39:38.389Z,7.66
2022-10-05T01:40:40.121Z,7.62
2022-10-05T01:41:41.845Z,7.59
2022-10-05T01:42:43.610Z,7.55
2022-10-05T01:43:45.323Z,7.51
2022-10-05T01:44:47.055Z,7.48
2022-10-05T01:45:48.829Z,7.46
2022-10-05T01:46:50.520Z,7.43
2022-10-05T01:47:52.267Z,7.41
2022-10-05T01:48:54.001Z,7.39
2022-10-05T01:49:55.727Z,7.38
2022-10-05T01:50:57.464Z,7.37
2022-10-05T01:51:59.209Z,7.38
2022-10-05T01:53:00.934Z,7.38
2022-10-05T01:54:02.676Z,7.38
2022-10-05T01:55:04.414Z,7.38
2022-10-05T01:56:06.164Z,7.39
2022-10-05T01:57:07.883Z,7.4
2022-10-05T01:58:09.606Z,7.42
2022-10-05T01:59:11.343Z,7.43
2022-10-05T02:00:13.071Z,7.44
2022-10-05T02:01:14.876Z,7.45
2022-10-05T02:02:16.601Z,7.47
2022-10-05T02:03:18.282Z,7.48
2022-10-05T02:04:42.741Z,7.49
2022-10-05T02:05:21.742Z,7.5
2022-10-05T02:06:23.491Z,7.51
2022-10-05T02:07:25.221Z,7.53
2022-10-05T02:08:26.941Z,7.54
2022-10-05T02:09:28.677Z,7.55
2022-10-05T02:10:30.404Z,7.56
2022-10-05T02:11:32.144Z,7.58
2022-10-05T02:12:33.897Z,7.59
2022-10-05T02:13:35.616Z,7.6
2022-10-05T02:14:37.361Z,7.61
2022-10-05T02:15:39.139Z,7.62
2022-10-05T02:16:40.826Z,7.63
2022-10-05T02:17:42.569Z,7.62
2022-10-05T02:18:44.287Z,7.62
2022-10-05T02:19:46.019Z,7.61
2022-10-05T02:20:47.842Z,7.59
2022-10-05T02:21:49.496Z,7.57
2022-10-05T02:22:51.227Z,7.55
2022-10-05T02:23:52.964Z,7.52
2022-10-05T02:24:54.699Z,7.49
2022-10-05T02:25:56.433Z,7.46
2022-10-05T02:26:58.169Z,7.42
2022-10-05T02:27:59.939Z,7.4
2022-10-05T02:29:01.632Z,7.37
2022-10-05T02:30:03.375Z,7.34
2022-10-05T02:31:05.207Z,7.33
2022-10-05T02:32:06.867Z,7.3
2022-10-05T02:33:08.580Z,7.29
2022-10-05T02:34:10.334Z,7.29
2022-10-05T02:35:12.051Z,7.28
2022-10-05T02:36:13.782Z,7.27
2022-10-05T02:37:15.523Z,7.27
2022-10-05T02:38:17.256Z,7.28
2022-10-05T02:39:17.557Z,7.29
2022-10-05T02:40:20.721Z,7.29
2022-10-05T02:41:22.474Z,7.3
2022-10-05T02:42:24.214Z,7.3
2022-10-05T02:43:25.919Z,7.31
2022-10-05T02:44:27.655Z,7.31
2022-10-05T02:45:29.387Z,7.32
2022-10-05T02:46:31.129Z,7.32
2022-10-05T02:47:32.891Z,7.33
2022-10-05T02:48:34.604Z,7.33
2022-10-05T02:49:36.344Z,7.34
2022-10-05T02:50:38.075Z,7.34
2022-10-05T02:51:39.810Z,7.33
2022-10-05T02:52:41.582Z,7.33
2022-10-05T02:53:43.271Z,7.32
2022-10-05T02:54:45.008Z,7.3
2022-10-05T02:55:46.739Z,7.29
2022-10-05T02:56:48.993Z,7.29
2022-10-05T02:57:50.219Z,7.28
2022-10-05T02:58:51.955Z,7.28
2022-10-05T02:59:53.689Z,7.26
2022-10-05T03:00:55.542Z,7.24
2022-10-05T03:01:57.201Z,7.24
2022-10-05T03:02:58.876Z,7.23
2022-10-05T03:04:00.629Z,7.21
2022-10-05T03:05:02.353Z,7.2
2022-10-05T03:06:04.100Z,7.2
2022-10-05T03:07:05.841Z,7.19
2022-10-05T03:08:07.558Z,7.18
2022-10-05T03:09:09.293Z,7.17
2022-10-05T03:10:11.027Z,7.16
2022-10-05T03:11:12.765Z,7.15
2022-10-05T03:12:14.521Z,7.14
2022-10-05T03:13:16.242Z,7.13
2022-10-05T03:14:17.961Z,7.11
2022-10-05T03:15:19.705Z,7.1
2022-10-05T03:16:21.504Z,7.08
2022-10-05T03:17:23.176Z,7.06
2022-10-05T03:18:29.859Z,7.03
2022-10-05T03:19:26.637Z,7.01
2022-10-05T03:20:28.371Z,6.98
2022-10-05T03:21:30.117Z,6.96
2022-10-05T03:22:31.876Z,6.93
2022-10-05T03:23:33.590Z,6.91
2022-10-05T03:24:35.320Z,6.87
2022-10-05T03:25:37.054Z,6.84
2022-10-05T03:26:38.783Z,6.82
2022-10-05T03:27:40.543Z,6.78
2022-10-05T03:28:42.267Z,6.76
2022-10-05T03:29:43.997Z,6.72
2022-10-05T03:30:45.734Z,6.69
2022-10-05T03:31:47.460Z,6.67
2022-10-05T03:32:49.215Z,6.65
2022-10-05T03:33:50.936Z,6.63
2022-10-05T03:34:52.675Z,6.61
2022-10-05T03:35:54.395Z,6.6
2022-10-05T03:36:56.131Z,6.6
2022-10-05T03:37:57.872Z,6.6
2022-10-05T03:38:59.609Z,6.59
2022-10-05T03:40:01.348Z,6.59
2022-10-05T03:41:03.079Z,6.59
2022-10-05T03:42:04.840Z,6.57
2022-10-05T03:43:06.550Z,6.58
2022-10-05T03:44:08.291Z,6.57
2022-10-05T03:45:10.014Z,6.57
2022-10-05T03:46:11.785Z,6.55
2022-10-05T03:47:13.487Z,6.55
2022-10-05T03:48:15.222Z,6.53
2022-10-05T03:49:16.949Z,6.52
2022-10-05T03:50:18.682Z,6.51
2022-10-05T03:51:20.429Z,6.49
2022-10-05T03:52:22.180Z,6.49
2022-10-05T03:53:23.904Z,6.48
2022-10-05T03:54:25.619Z,6.46
2022-10-05T03:55:27.354Z,6.44
2022-10-05T03:56:29.096Z,6.4
2022-10-05T03:57:30.828Z,6.39
2022-10-05T03:58:32.597Z,6.36
2022-10-05T03:59:34.890Z,6.33
2022-10-05T04:00:36.042Z,6.31
2022-10-05T04:01:37.808Z,6.3
2022-10-05T04:02:39.540Z,6.3
2022-10-05T04:03:41.238Z,6.31
2022-10-05T04:04:42.968Z,6.35
2022-10-05T04:05:44.543Z,6.39
2022-10-05T04:06:46.626Z,6.45
2022-10-05T04:07:48.007Z,6.51
2022-10-05T04:08:49.736Z,6.58
2022-10-05T04:09:51.475Z,6.64
2022-10-05T04:10:53.211Z,6.7
2022-10-05T04:11:54.947Z,6.77
2022-10-05T04:12:56.681Z,6.83
2022-10-05T04:13:58.418Z,6.92
2022-10-05T04:15:00.172Z,6.98
2022-10-05T04:16:01.960Z,7.04
2022-10-05T04:17:03.616Z,7.08
2022-10-05T04:18:05.346Z,7.14
2022-10-05T04:19:07.088Z,7.19
2022-10-05T04:20:08.827Z,7.25
2022-10-05T04:21:10.557Z,7.29
2022-10-05T04:22:12.311Z,7.31
2022-10-05T04:23:14.022Z,7.36
2022-10-05T04:24:15.767Z,7.38
2022-10-05T04:25:17.500Z,7.41
2022-10-05T04:26:19.227Z,7.44
2022-10-05T04:27:20.974Z,7.46
2022-10-05T04:28:22.788Z,7.49
2022-10-05T04:29:24.437Z,7.51
2022-10-05T04:30:26.168Z,7.54
2022-10-05T04:31:27.927Z,7.57
2022-10-05T04:32:29.664Z,7.59
2022-10-05T04:33:31.366Z,7.6
2022-10-05T04:34:33.116Z,7.64
2022-10-05T04:35:34.850Z,7.66
2022-10-05T04:36:36.581Z,7.69
2022-10-05T04:37:40.311Z,7.72
2022-10-05T04:38:40.047Z,7.75
2022-10-05T04:39:41.786Z,7.78
2022-10-05T04:40:43.518Z,7.82
2022-10-05T04:41:45.249Z,7.85
2022-10-05T04:42:46.990Z,7.89
2022-10-05T04:43:48.726Z,7.93
2022-10-05T04:44:50.463Z,7.96
2022-10-05T04:45:52.184Z,7.99
2022-10-05T04:46:54.138Z,8.03
2022-10-05T04:47:55.663Z,8.07
2022-10-05T04:48:57.392Z,8.1
2022-10-05T04:49:59.118Z,8.14
2022-10-05T04:51:00.852Z,8.18
2022-10-05T04:52:02.592Z,8.22
2022-10-05T04:53:04.323Z,8.25
2022-10-05T04:54:06.061Z,8.29
2022-10-05T04:55:07.798Z,8.32
2022-10-05T04:56:09.527Z,8.35
2022-10-05T04:57:11.268Z,8.38
2022-10-05T04:58:12.990Z,8.4
2022-10-05T04:59:14.731Z,8.42
2022-10-05T05:00:16.471Z,8.44
2022-10-05T05:01:18.358Z,8.45
2022-10-05T05:02:19.957Z,8.47
2022-10-05T05:03:21.743Z,8.48
2022-10-05T05:04:23.435Z,8.49
2022-10-05T05:05:25.135Z,8.51
2022-10-05T05:06:26.882Z,8.51
2022-10-05T05:07:28.621Z,8.52
2022-10-05T05:08:30.344Z,8.53
2022-10-05T05:09:32.091Z,8.54
2022-10-05T05:10:33.833Z,8.54
2022-10-05T05:11:35.558Z,8.56
2022-10-05T05:12:37.306Z,8.57
2022-10-05T05:13:39.018Z,8.58
2022-10-05T05:14:40.755Z,8.58
2022-10-05T05:15:42.539Z,8.59
2022-10-05T05:16:44.494Z,8.59
2022-10-05T05:17:45.960Z,8.61
2022-10-05T05:18:47.681Z,8.62
2022-10-05T05:19:49.420Z,8.64
2022-10-05T05:20:51.156Z,8.65
2022-10-05T05:21:52.886Z,8.66
2022-10-05T05:22:54.629Z,8.68
2022-10-05T05:23:56.361Z,8.7
2022-10-05T05:24:58.105Z,8.71
2022-10-05T05:25:59.835Z,8.72
2022-10-05T05:27:01.554Z,8.73
2022-10-05T05:28:03.360Z,8.74
2022-10-05T05:29:05.074Z,8.77
2022-10-05T05:30:06.769Z,8.78
2022-10-05T05:31:08.540Z,8.79
2022-10-05T05:32:10.229Z,8.8
2022-10-05T05:33:11.972Z,8.81
2022-10-05T05:34:13.702Z,8.83
2022-10-05T05:35:15.454Z,8.84
2022-10-05T05:36:22.148Z,8.86
2022-10-05T05:37:18.915Z,8.87
2022-10-05T05:38:20.647Z,8.88
2022-10-05T05:39:22.373Z,8.89
2022-10-05T05:40:24.105Z,8.91
2022-10-05T05:41:25.843Z,8.92
2022-10-05T05:42:27.601Z,8.94
2022-10-05T05:43:29.308Z,8.94
2022-10-05T05:44:34.179Z,8.95
2022-10-05T05:45:32.791Z,8.96
2022-10-05T05:47:01.708Z,8.98
2022-10-05T05:47:36.325Z,8.99
2022-10-05T05:48:37.997Z,8.99
2022-10-05T05:49:39.724Z,9.01
2022-10-05T05:50:41.457Z,9.01
2022-10-05T05:51:43.194Z,9.03
2022-10-05T05:52:44.942Z,9.04
2022-10-05T05:53:46.658Z,9.05
2022-10-05T05:54:48.392Z,9.06
2022-10-05T05:55:50.132Z,9.07
2022-10-05T05:56:51.868Z,9.08
2022-10-05T05:57:53.617Z,9.09
2022-10-05T05:58:55.339Z,9.1
2022-10-05T05:59:57.079Z,9.11
2022-10-05T06:00:58.815Z,9.12
2022-10-05T06:02:00.598Z,9.14
2022-10-05T06:03:02.509Z,9.15
2022-10-05T06:04:04.015Z,9.15
2022-10-05T06:05:05.838Z,9.17
2022-10-05T06:06:07.484Z,9.17
2022-10-05T06:07:09.217Z,9.19
2022-10-05T06:08:10.945Z,9.2
2022-10-05T06:09:12.681Z,9.2
2022-10-05T06:10:14.426Z,9.22
2022-10-05T06:11:16.152Z,9.23
2022-10-05T06:12:17.900Z,9.24
2022-10-05T06:13:19.619Z,9.25
2022-10-05T06:14:21.331Z,9.26
2022-10-05T06:15:23.085Z,9.28
2022-10-05T06:16:24.945Z,9.29
2022-10-05T06:17:26.566Z,9.31
2022-10-05T06:18:28.298Z,9.32
2022-10-05T06:19:30.026Z,9.33
2022-10-05T06:20:31.758Z,9.34
2022-10-05T06:21:33.496Z,9.36
2022-10-05T06:22:35.249Z,9.37
2022-10-05T06:23:36.960Z,9.38
2022-10-05T06:24:38.705Z,9.4
2022-10-05T06:25:40.430Z,9.4
2022-10-05T06:26:42.167Z,9.43
2022-10-05T06:27:43.904Z,9.44
2022-10-05T06:28:45.632Z,9.45
2022-10-05T06:29:47.373Z,9.46
2022-10-05T06:30:49.108Z,9.47
2022-10-05T06:31:54.152Z,9.5
2022-10-05T06:32:52.591Z,9.51
2022-10-05T06:33:54.318Z,9.52
2022-10-05T06:34:56.044Z,9.53
2022-10-05T06:35:57.783Z,9.55
2022-10-05T06:36:59.507Z,9.57
2022-10-05T06:38:01.240Z,9.59
2022-10-05T06:39:02.983Z,9.59
2022-10-05T06:40:04.715Z,9.61
2022-10-05T06:41:06.447Z,9.62
2022-10-05T06:42:08.187Z,9.63
2022-10-05T06:43:09.929Z,9.64
2022-10-05T06:44:11.663Z,9.65
2022-10-05T06:45:13.376Z,9.66
2022-10-05T06:46:15.172Z,9.66
2022-10-05T06:47:16.862Z,9.64
2022-10-05T06:48:18.596Z,9.63
2022-10-05T06:49:20.337Z,9.62
2022-10-05T06:50:22.063Z,9.61
2022-10-05T06:51:23.801Z,9.6
2022-10-05T06:52:25.548Z,9.59
2022-10-05T06:53:27.269Z,9.58
2022-10-05T06:54:29.007Z,9.58
2022-10-05T06:55:30.740Z,9.56
2022-10-05T06:56:32.471Z,9.56
2022-10-05T06:57:34.224Z,9.55
2022-10-05T06:58:35.939Z,9.55
2022-10-05T06:59:37.690Z,9.55
2022-10-05T07:00:39.408Z,9.55
2022-10-05T07:01:41.413Z,9.55
2022-10-05T07:02:42.896Z,9.57
2022-10-05T07:03:44.613Z,9.57
2022-10-05T07:04:46.338Z,9.58
2022-10-05T07:05:48.082Z,9.59
2022-10-05T07:06:49.799Z,9.61
2022-10-05T07:07:51.549Z,9.63
2022-10-05T07:08:53.244Z,9.64
2022-10-05T07:09:54.986Z,9.67
2022-10-05T07:10:56.706Z,9.69
2022-10-05T07:12:02.210Z,9.71
2022-10-05T07:13:00.164Z,9.74
2022-10-05T07:14:01.895Z,9.77
2022-10-05T07:15:03.623Z,9.79
2022-10-05T07:16:05.401Z,9.83
2022-10-05T07:17:07.112Z,9.87
2022-10-05T07:18:08.858Z,9.91
2022-10-05T07:19:10.579Z,9.95
2022-10-05T07:20:12.310Z,10
2022-10-05T07:21:14.046Z,10.05
2022-10-05T07:22:15.794Z,10.1
2022-10-05T07:23:17.504Z,10.16
2022-10-05T07:24:19.242Z,10.22
2022-10-05T07:25:21.003Z,10.28
2022-10-05T07:26:22.711Z,10.37
2022-10-05T07:27:24.451Z,10.46
2022-10-05T07:28:26.403Z,10.53
2022-10-05T07:29:27.927Z,10.62
2022-10-05T07:30:29.702Z,10.71
2022-10-05T07:31:31.400Z,10.78
2022-10-05T07:32:33.163Z,10.85
2022-10-05T07:33:34.860Z,10.89
2022-10-05T07:34:36.611Z,10.95
2022-10-05T07:35:38.334Z,10.98
2022-10-05T07:36:40.071Z,11.01
2022-10-05T07:37:41.822Z,11.05
2022-10-05T07:38:43.533Z,11.06
2022-10-05T07:39:59.707Z,11.08
2022-10-05T07:40:47.003Z,11.07
2022-10-05T07:41:48.742Z,11.08
2022-10-05T07:42:52.209Z,11.06
2022-10-05T07:44:01.959Z,11.07
2022-10-05T07:44:53.954Z,11.06
2022-10-05T07:45:55.767Z,11.04
2022-10-05T07:46:57.428Z,11.04
2022-10-05T07:47:59.169Z,11.04
2022-10-05T07:49:00.882Z,11.04
2022-10-05T07:50:02.615Z,11.03
2022-10-05T07:51:04.359Z,11.05
2022-10-05T07:52:06.099Z,11.06
2022-10-05T07:53:07.825Z,11.06
2022-10-05T07:54:09.560Z,11.07
2022-10-05T07:55:11.298Z,11.08
2022-10-05T07:56:13.045Z,11.08
2022-10-05T07:57:14.769Z,11.11
2022-10-05T07:58:16.500Z,11.12
2022-10-05T07:59:18.641Z,11.18
2022-10-05T08:00:19.973Z,11.18
2022-10-05T08:01:21.776Z,11.2
2022-10-05T08:02:23.648Z,11.22
2022-10-05T08:03:25.173Z,11.24
2022-10-05T08:04:26.908Z,11.26
2022-10-05T08:05:28.663Z,11.26
2022-10-05T08:06:30.383Z,11.27
2022-10-05T08:07:32.216Z,11.28
2022-10-05T08:08:33.863Z,11.29
2022-10-05T08:09:35.592Z,11.3
2022-10-05T08:10:37.322Z,11.31
2022-10-05T08:11:39.057Z,11.32
2022-10-05T08:12:40.824Z,11.33
2022-10-05T08:13:42.527Z,11.34
2022-10-05T08:14:44.275Z,11.36
2022-10-05T08:15:46.067Z,11.37
2022-10-05T08:16:47.733Z,11.39
2022-10-05T08:17:49.469Z,11.4
2022-10-05T08:18:51.215Z,11.43
2022-10-05T08:19:52.946Z,11.45
2022-10-05T08:20:54.673Z,11.47
2022-10-05T08:21:56.403Z,11.52
2022-10-05T08:22:58.138Z,11.53
2022-10-05T08:23:59.883Z,11.55
2022-10-05T08:25:01.618Z,11.59
2022-10-05T08:26:03.349Z,11.63
2022-10-05T08:27:05.069Z,11.66
2022-10-05T08:28:06.875Z,11.68
2022-10-05T08:29:13.493Z,11.72
2022-10-05T08:30:10.288Z,11.76
2022-10-05T08:31:12.213Z,11.81
2022-10-05T08:32:13.760Z,11.85
2022-10-05T08:33:15.491Z,11.91
2022-10-05T08:34:17.236Z,11.94
2022-10-05T08:35:18.962Z,11.97
2022-10-05T08:36:20.705Z,12
2022-10-05T08:37:22.439Z,12.04
2022-10-05T08:38:24.171Z,12.07
2022-10-05T08:39:25.884Z,12.14
2022-10-05T08:40:27.632Z,12.24
2022-10-05T08:41:29.374Z,12.3
2022-10-05T08:42:31.098Z,12.32
2022-10-05T08:43:35.305Z,12.38
2022-10-05T08:44:34.590Z,12.49
2022-10-05T08:45:36.311Z,12.47
2022-10-05T08:46:38.098Z,12.63
2022-10-05T08:47:40.115Z,12.77
2022-10-05T08:48:41.521Z,12.85
2022-10-05T08:49:43.258Z,12.93
2022-10-05T08:50:44.993Z,12.84
2022-10-05T08:51:46.989Z,12.91
2022-10-05T08:52:48.459Z,12.87
2022-10-05T08:53:50.185Z,12.87
2022-10-05T08:54:51.906Z,12.89
2022-10-05T08:55:53.637Z,12.91
2022-10-05T08:56:55.358Z,12.95
2022-10-05T08:57:57.082Z,12.98
2022-10-05T08:58:58.822Z,13
2022-10-05T09:00:00.555Z,12.98
2022-10-05T09:01:02.347Z,13
2022-10-05T09:02:04.027Z,13.05
2022-10-05T09:03:05.777Z,13.05
2022-10-05T09:04:07.495Z,13.06
2022-10-05T09:05:09.242Z,13.11
2022-10-05T09:06:10.974Z,13.14
2022-10-05T09:07:12.751Z,13.17
2022-10-05T09:08:14.443Z,13.18
2022-10-05T09:09:16.175Z,13.2
2022-10-05T09:10:17.904Z,13.23
2022-10-05T09:11:19.654Z,13.21
2022-10-05T09:12:21.379Z,13.24
2022-10-05T09:13:23.114Z,13.27
2022-10-05T09:14:24.842Z,13.3
2022-10-05T09:15:26.860Z,13.36
2022-10-05T09:16:28.320Z,13.44
2022-10-05T09:17:30.069Z,13.53
2022-10-05T09:18:31.795Z,13.63
2022-10-05T09:19:33.537Z,13.75
2022-10-05T09:20:35.303Z,13.9
2022-10-05T09:21:37.002Z,14.03
2022-10-05T09:22:38.736Z,14.17
2022-10-05T09:23:40.477Z,14.32
2022-10-05T09:24:46.268Z,14.4
2022-10-05T09:25:43.954Z,14.48
2022-10-05T09:26:45.697Z,14.55
2022-10-05T09:27:47.416Z,14.6
2022-10-05T09:28:49.144Z,14.57
2022-10-05T09:29:50.894Z,14.59
2022-10-05T09:30:52.754Z,14.58
2022-10-05T09:31:54.355Z,14.54
2022-10-05T09:32:56.092Z,14.48
2022-10-05T09:33:57.835Z,14.44
2022-10-05T09:34:59.571Z,14.43
2022-10-05T09:36:01.281Z,14.41
2022-10-05T09:37:03.033Z,14.36
2022-10-05T09:38:04.790Z,14.32
2022-10-05T09:39:06.502Z,14.27
2022-10-05T09:40:08.239Z,14.27
2022-10-05T09:41:09.966Z,14.26
2022-10-05T09:42:11.701Z,14.26
2022-10-05T09:43:13.438Z,14.26
2022-10-05T09:44:15.177Z,14.26
2022-10-05T09:45:21.197Z,14.24
2022-10-05T09:46:18.791Z,14.27
2022-10-05T09:47:20.374Z,14.3
2022-10-05T09:48:22.108Z,14.33
2022-10-05T09:49:23.842Z,14.37
2022-10-05T09:50:25.582Z,14.4
2022-10-05T09:51:27.316Z,14.44
2022-10-05T09:52:29.078Z,14.45
2022-10-05T09:53:30.793Z,14.47
2022-10-05T09:54:32.525Z,14.49
2022-10-05T09:55:34.262Z,14.51
2022-10-05T09:56:35.984Z,14.5
2022-10-05T09:57:37.744Z,14.54
2022-10-05T09:58:39.567Z,14.54
2022-10-05T09:59:41.205Z,14.58
2022-10-05T10:00:48.182Z,14.62
2022-10-05T10:01:44.749Z,14.7
2022-10-05T10:02:46.578Z,14.73
2022-10-05T10:03:48.144Z,14.82
2022-10-05T10:04:49.865Z,14.91
2022-10-05T10:05:51.601Z,14.98
2022-10-05T10:06:53.341Z,15.03
2022-10-05T10:07:55.086Z,15.04
2022-10-05T10:08:56.824Z,15.08
2022-10-05T10:09:58.545Z,15.13
2022-10-05T10:11:00.289Z,15.18
2022-10-05T10:12:02.006Z,15.17
2022-10-05T10:13:03.776Z,15.19
2022-10-05T10:14:05.489Z,15.18
2022-10-05T10:15:07.223Z,15.2
2022-10-05T10:16:09.010Z,15.17
2022-10-05T10:17:10.685Z,15.13
2022-10-05T10:18:12.431Z,15.11
2022-10-05T10:19:14.160Z,15.09
2022-10-05T10:20:15.906Z,15.08
2022-10-05T10:21:17.620Z,15.06
2022-10-05T10:22:19.357Z,15.08
2022-10-05T10:23:21.095Z,15.03
2022-10-05T10:24:22.826Z,14.99
2022-10-05T10:25:24.564Z,15.01
2022-10-05T10:26:26.291Z,15.03
2022-10-05T10:27:28.035Z,15.04
2022-10-05T10:28:29.797Z,15.05
2022-10-05T10:29:31.508Z,15.02
2022-10-05T10:30:36.377Z,15.05
2022-10-05T10:31:34.974Z,15.07
2022-10-05T10:32:36.718Z,15.09
2022-10-05T10:33:38.456Z,15.1
2022-10-05T10:34:40.178Z,15.11
2022-10-05T10:35:41.904Z,15.13
2022-10-05T10:36:43.646Z,15.09
2022-10-05T10:37:45.366Z,15.09
2022-10-05T10:38:47.087Z,15.08
2022-10-05T10:39:48.827Z,15.07
2022-10-05T10:40:50.546Z,15.07
2022-10-05T10:41:52.278Z,15.06
2022-10-05T10:42:54.012Z,15.05
2022-10-05T10:43:55.758Z,15.03
2022-10-05T10:44:57.490Z,15.02
2022-10-05T10:45:59.305Z,14.99
2022-10-05T10:47:01.022Z,14.98
2022-10-05T10:48:02.700Z,15
2022-10-05T10:49:04.429Z,15
2022-10-05T10:50:06.266Z,14.99
2022-10-05T10:51:07.883Z,14.99
2022-10-05T10:52:09.635Z,14.96
2022-10-05T10:53:11.371Z,14.98
2022-10-05T10:54:13.103Z,14.98
2022-10-05T10:55:14.836Z,14.99
2022-10-05T10:56:16.567Z,15
2022-10-05T10:57:18.310Z,14.99
2022-10-05T10:58:20.139Z,14.99
2022-10-05T10:59:21.775Z,15
2022-10-05T11:00:23.523Z,15
2022-10-05T11:01:25.371Z,15.02
2022-10-05T11:02:27.090Z,15.05
2022-10-05T11:03:28.733Z,15.07
2022-10-05T11:04:30.455Z,15.09
2022-10-05T11:05:32.212Z,15.12
2022-10-05T11:06:33.933Z,15.15
2022-10-05T11:07:35.661Z,15.2
2022-10-05T11:08:37.416Z,15.25
2022-10-05T11:09:39.137Z,15.29
2022-10-05T11:10:40.859Z,15.33
2022-10-05T11:11:42.597Z,15.36
2022-10-05T11:12:44.331Z,15.41
2022-10-05T11:13:46.060Z,15.47
2022-10-05T11:14:47.805Z,15.52
2022-10-05T11:15:49.667Z,15.57
2022-10-05T11:16:51.579Z,15.63
2022-10-05T11:17:53.010Z,15.68
2022-10-05T11:18:54.752Z,15.73
2022-10-05T11:20:04.208Z,15.81
2022-10-05T11:20:58.215Z,15.85
2022-10-05T11:21:59.938Z,15.94
2022-10-05T11:23:01.680Z,16.03
2022-10-05T11:24:03.413Z,16.12
2022-10-05T11:25:05.160Z,16.18
2022-10-05T11:26:06.877Z,16.24
2022-10-05T11:27:08.705Z,16.28
2022-10-05T11:28:10.448Z,16.31
2022-10-05T11:29:12.096Z,16.34
2022-10-05T11:30:13.837Z,16.4
2022-10-05T11:31:15.613Z,16.44
2022-10-05T11:32:17.305Z,16.5
2022-10-05T11:33:19.030Z,16.54
2022-10-05T11:34:20.774Z,16.58
2022-10-05T11:35:22.513Z,16.62
2022-10-05T11:36:24.235Z,16.63
2022-10-05T11:37:25.981Z,16.64
2022-10-05T11:38:27.717Z,16.61
2022-10-05T11:39:29.444Z,16.59
2022-10-05T11:40:31.191Z,16.61
2022-10-05T11:41:32.944Z,16.61
2022-10-05T11:42:34.656Z,16.6
2022-10-05T11:43:36.391Z,16.6
2022-10-05T11:44:38.131Z,16.56
2022-10-05T11:45:39.879Z,16.53
2022-10-05T11:46:41.677Z,16.49
2022-10-05T11:47:43.340Z,16.46
2022-10-05T11:48:45.060Z,16.42
2022-10-05T11:49:46.804Z,16.42
2022-10-05T11:50:48.538Z,16.41
2022-10-05T11:51:50.577Z,16.4
2022-10-05T11:52:52.005Z,16.42
2022-10-05T11:53:53.737Z,16.43
2022-10-05T11:55:10.320Z,16.47
2022-10-05T11:55:57.214Z,16.5
2022-10-05T11:56:59.154Z,16.56
2022-10-05T11:58:00.689Z,16.62
2022-10-05T11:59:02.426Z,16.71
2022-10-05T12:00:04.211Z,16.79
2022-10-05T12:01:05.904Z,16.85
2022-10-05T12:02:07.627Z,16.91
2022-10-05T12:03:09.566Z,16.97
2022-10-05T12:04:11.276Z,17.03
2022-10-05T12:05:12.835Z,17.08
2022-10-05T12:06:14.590Z,17.11
2022-10-05T12:07:16.285Z,17.16
2022-10-05T12:08:18.032Z,17.2
2022-10-05T12:09:19.762Z,17.23
2022-10-05T12:10:21.486Z,17.28
2022-10-05T12:11:23.262Z,17.32
2022-10-05T12:12:24.966Z,17.34
2022-10-05T12:13:26.702Z,17.37
2022-10-05T12:14:28.437Z,17.41
2022-10-05T12:15:30.170Z,17.47
2022-10-05T12:16:31.928Z,17.5
2022-10-05T12:17:33.632Z,17.54
2022-10-05T12:18:35.377Z,17.56
2022-10-05T12:19:37.113Z,17.57
2022-10-05T12:20:38.872Z,17.56
2022-10-05T12:21:40.594Z,17.57
2022-10-05T12:22:42.314Z,17.56
2022-10-05T12:23:44.067Z,17.57
2022-10-05T12:24:45.802Z,17.57
2022-10-05T12:25:47.530Z,17.59
2022-10-05T12:26:49.277Z,17.58
2022-10-05T12:27:50.976Z,17.62
2022-10-05T12:28:52.734Z,17.65
2022-10-05T12:29:54.458Z,17.71
2022-10-05T12:30:56.219Z,17.75
2022-10-05T12:31:57.945Z,17.8
2022-10-05T12:33:02.039Z,17.84
2022-10-05T12:34:01.382Z,17.9
2022-10-05T12:35:03.113Z,17.95
2022-10-05T12:36:05.918Z,17.98
2022-10-05T12:37:06.580Z,18.02
2022-10-05T12:38:08.292Z,18.05
2022-10-05T12:39:10.042Z,18.07
2022-10-05T12:40:11.770Z,18.09
2022-10-05T12:41:14.033Z,18.07
2022-10-05T12:42:15.248Z,18.09
2022-10-05T12:43:18.803Z,18.1
2022-10-05T12:44:23.870Z,18.11
2022-10-05T12:45:25.659Z,18.14
2022-10-05T12:46:27.333Z,18.16
2022-10-05T12:47:29.099Z,18.21
2022-10-05T12:48:30.779Z,18.22
2022-10-05T12:49:32.532Z,18.22
2022-10-05T12:50:34.271Z,18.23
2022-10-05T12:51:36.009Z,18.23
2022-10-05T12:52:37.732Z,18.24
2022-10-05T12:53:39.461Z,18.25
2022-10-05T12:54:41.225Z,18.27
2022-10-05T12:55:42.947Z,18.32
2022-10-05T12:56:44.687Z,18.34
2022-10-05T12:57:46.418Z,18.39
2022-10-05T12:58:48.151Z,18.41
2022-10-05T12:59:49.871Z,18.44
2022-10-05T13:00:51.630Z,18.47
2022-10-05T13:01:53.444Z,18.49
2022-10-05T13:02:55.088Z,18.53
2022-10-05T13:03:56.840Z,18.55
2022-10-05T13:04:58.651Z,18.58
2022-10-05T13:06:02.676Z,18.6
2022-10-05T13:07:02.023Z,18.63
2022-10-05T13:08:03.765Z,18.62
2022-10-05T13:09:05.492Z,18.64
2022-10-05T13:10:07.231Z,18.67
2022-10-05T13:11:12.681Z,18.65
2022-10-05T13:12:10.704Z,18.68
2022-10-05T13:13:12.430Z,18.71
2022-10-05T13:14:14.174Z,18.73
2022-10-05T13:15:15.919Z,18.74
2022-10-05T13:16:17.885Z,18.75
2022-10-05T13:17:19.375Z,18.77
2022-10-05T13:18:21.112Z,18.79
2022-10-05T13:19:22.824Z,18.79
2022-10-05T13:20:24.573Z,18.79
2022-10-05T13:21:26.814Z,18.8
2022-10-05T13:22:28.040Z,18.8
2022-10-05T13:23:29.785Z,18.82
2022-10-05T13:24:31.510Z,18.83
2022-10-05T13:25:33.280Z,18.86
2022-10-05T13:26:34.985Z,18.89
2022-10-05T13:27:36.729Z,18.91
2022-10-05T13:28:38.458Z,18.94
2022-10-05T13:29:40.176Z,18.98
2022-10-05T13:30:41.933Z,19.02
2022-10-05T13:31:43.738Z,19.05
2022-10-05T13:32:45.397Z,19.07